sensor_id;sensor_type;location;lat;lon;timestamp;pressure;altitude;pressure_sealevel;temperature;humidity
69980;BME280;57318;56.232;43.944;2023-04-09T00:01:25;100351.72;;;4.43;31.32
69980;BME280;57318;56.232;43.944;2023-04-09T00:03:51;100350.94;;;4.41;31.34
69980;BME280;57318;56.232;43.944;2023-04-09T00:06:17;100346.66;;;4.38;31.43
69980;BME280;57318;56.232;43.944;2023-04-09T00:08:42;100345.00;;;4.36;31.56
69980;BME280;57318;56.232;43.944;2023-04-09T00:11:08;100353.69;;;4.38;31.43
69980;BME280;57318;56.232;43.944;2023-04-09T00:13:34;100355.41;;;4.39;31.46
69980;BME280;57318;56.232;43.944;2023-04-09T00:15:59;100355.41;;;4.39;31.28
69980;BME280;57318;56.232;43.944;2023-04-09T00:18:25;100351.13;;;4.36;31.48
69980;BME280;57318;56.232;43.944;2023-04-09T00:20:51;100347.75;;;4.32;31.78
69980;BME280;57318;56.232;43.944;2023-04-09T00:23:16;100343.47;;;4.30;31.80
69980;BME280;57318;56.232;43.944;2023-04-09T00:25:42;100345.31;;;4.28;31.95
69980;BME280;57318;56.232;43.944;2023-04-09T00:28:08;100343.66;;;4.25;32.03
69980;BME280;57318;56.232;43.944;2023-04-09T00:30:33;100352.44;;;4.24;31.85
69980;BME280;57318;56.232;43.944;2023-04-09T00:32:59;100348.25;;;4.20;31.97
69980;BME280;57318;56.232;43.944;2023-04-09T00:35:25;100342.22;;;4.16;31.79
69980;BME280;57318;56.232;43.944;2023-04-09T00:37:51;100340.47;;;4.17;32.15
69980;BME280;57318;56.232;43.944;2023-04-09T00:40:16;100343.22;;;4.14;32.08
69980;BME280;57318;56.232;43.944;2023-04-09T00:42:42;100338.97;;;4.10;32.32
69980;BME280;57318;56.232;43.944;2023-04-09T00:45:08;100344.25;;;4.10;32.24
69980;BME280;57318;56.232;43.944;2023-04-09T00:47:34;100344.38;;;4.07;32.31
69980;BME280;57318;56.232;43.944;2023-04-09T00:50:01;100342.78;;;4.03;32.69
69980;BME280;57318;56.232;43.944;2023-04-09T00:52:27;100343.69;;;4.02;32.49
69980;BME280;57318;56.232;43.944;2023-04-09T00:54:58;100342.66;;;4.06;32.50
69980;BME280;57318;56.232;43.944;2023-04-09T00:57:25;100348.78;;;4.06;32.42
69980;BME280;57318;56.232;43.944;2023-04-09T00:59:53;100346.94;;;4.08;32.60
69980;BME280;57318;56.232;43.944;2023-04-09T01:02:19;100342.50;;;4.10;32.25
69980;BME280;57318;56.232;43.944;2023-04-09T01:04:45;100350.31;;;4.12;32.39
69980;BME280;57318;56.232;43.944;2023-04-09T01:07:28;100351.09;;;4.14;31.96
69980;BME280;57318;56.232;43.944;2023-04-09T01:15:10;100349.44;;;4.11;32.18
69980;BME280;57318;56.232;43.944;2023-04-09T01:17:47;100350.38;;;4.10;32.49
69980;BME280;57318;56.232;43.944;2023-04-09T01:20:29;100354.03;;;4.06;32.62
69980;BME280;57318;56.232;43.944;2023-04-09T01:23:26;100347.94;;;4.06;32.19
69980;BME280;57318;56.232;43.944;2023-04-09T01:29:02;100353.41;;;4.00;32.44
69980;BME280;57318;56.232;43.944;2023-04-09T01:31:39;100339.69;;;3.91;32.76
69980;BME280;57318;56.232;43.944;2023-04-09T01:34:15;100349.25;;;3.94;32.56
69980;BME280;57318;56.232;43.944;2023-04-09T01:36:54;100349.41;;;3.89;32.58
69980;BME280;57318;56.232;43.944;2023-04-09T01:39:32;100327.09;;;3.77;32.61
69980;BME280;57318;56.232;43.944;2023-04-09T01:41:58;100334.97;;;3.77;33.11
69980;BME280;57318;56.232;43.944;2023-04-09T01:44:34;100345.06;;;3.88;32.90
69980;BME280;57318;56.232;43.944;2023-04-09T01:47:01;100349.53;;;3.86;32.94
69980;BME280;57318;56.232;43.944;2023-04-09T01:49:27;100347.63;;;3.90;33.02
69980;BME280;57318;56.232;43.944;2023-04-09T01:51:53;100345.88;;;3.90;33.42
69980;BME280;57318;56.232;43.944;2023-04-09T01:54:19;100351.94;;;3.92;33.14
69980;BME280;57318;56.232;43.944;2023-04-09T01:56:46;100354.56;;;3.92;33.21
69980;BME280;57318;56.232;43.944;2023-04-09T01:59:12;100348.41;;;3.93;33.35
69980;BME280;57318;56.232;43.944;2023-04-09T02:01:46;100350.19;;;3.91;33.45
69980;BME280;57318;56.232;43.944;2023-04-09T02:04:22;100354.66;;;3.89;33.06
69980;BME280;57318;56.232;43.944;2023-04-09T02:07:05;100358.28;;;3.87;33.54
69980;BME280;57318;56.232;43.944;2023-04-09T02:09:35;100360.22;;;3.82;33.51
69980;BME280;57318;56.232;43.944;2023-04-09T02:12:06;100357.75;;;3.77;33.53
69980;BME280;57318;56.232;43.944;2023-04-09T02:14:36;100356.06;;;3.76;33.84
69980;BME280;57318;56.232;43.944;2023-04-09T02:17:03;100355.28;;;3.72;33.70
69980;BME280;57318;56.232;43.944;2023-04-09T02:19:43;100357.88;;;3.74;33.66
69980;BME280;57318;56.232;43.944;2023-04-09T02:22:11;100360.50;;;3.74;33.97
69980;BME280;57318;56.232;43.944;2023-04-09T02:24:37;100357.03;;;3.73;33.82
69980;BME280;57318;56.232;43.944;2023-04-09T02:27:03;100355.28;;;3.72;34.10
69980;BME280;57318;56.232;43.944;2023-04-09T02:29:29;100352.72;;;3.71;33.91
69980;BME280;57318;56.232;43.944;2023-04-09T02:31:55;100356.22;;;3.71;33.89
69980;BME280;57318;56.232;43.944;2023-04-09T02:34:21;100355.41;;;3.69;33.66
69980;BME280;57318;56.232;43.944;2023-04-09T02:36:47;100356.22;;;3.71;34.19
69980;BME280;57318;56.232;43.944;2023-04-09T02:39:13;100356.28;;;3.70;33.83
69980;BME280;57318;56.232;43.944;2023-04-09T02:41:38;100353.59;;;3.71;33.89
69980;BME280;57318;56.232;43.944;2023-04-09T02:44:04;100350.03;;;3.72;33.71
69980;BME280;57318;56.232;43.944;2023-04-09T02:46:30;100350.81;;;3.76;33.69
69980;BME280;57318;56.232;43.944;2023-04-09T02:48:55;100349.88;;;3.77;33.84
69980;BME280;57318;56.232;43.944;2023-04-09T02:51:21;100348.97;;;3.78;34.25
69980;BME280;57318;56.232;43.944;2023-04-09T02:53:47;100347.00;;;3.83;33.67
69980;BME280;57318;56.232;43.944;2023-04-09T02:56:12;100354.72;;;3.88;33.77
69980;BME280;57318;56.232;43.944;2023-04-09T02:58:38;100351.97;;;3.91;34.09
69980;BME280;57318;56.232;43.944;2023-04-09T03:01:04;100360.59;;;3.94;33.78
69980;BME280;57318;56.232;43.944;2023-04-09T03:03:29;100357.00;;;3.97;33.71
69980;BME280;57318;56.232;43.944;2023-04-09T03:05:55;100356.84;;;4.02;33.90
69980;BME280;57318;56.232;43.944;2023-04-09T03:08:21;100356.72;;;4.05;33.45
69980;BME280;57318;56.232;43.944;2023-04-09T03:10:47;100350.38;;;4.10;33.12
69980;BME280;57318;56.232;43.944;2023-04-09T03:13:12;100358.94;;;4.15;33.28
69980;BME280;57318;56.232;43.944;2023-04-09T03:15:38;100350.00;;;4.20;33.24
69980;BME280;57318;56.232;43.944;2023-04-09T03:18:04;100351.66;;;4.22;33.28
69980;BME280;57318;56.232;43.944;2023-04-09T03:20:29;100349.69;;;4.27;33.20
69980;BME280;57318;56.232;43.944;2023-04-09T03:22:55;100352.97;;;4.34;33.03
69980;BME280;57318;56.232;43.944;2023-04-09T03:25:21;100355.41;;;4.39;32.65
69980;BME280;57318;56.232;43.944;2023-04-09T03:27:47;100353.44;;;4.44;32.58
69980;BME280;57318;56.232;43.944;2023-04-09T03:30:12;100359.25;;;4.52;32.65
69980;BME280;57318;56.232;43.944;2023-04-09T03:32:38;100354.66;;;4.57;32.42
69980;BME280;57318;56.232;43.944;2023-04-09T03:35:04;100352.72;;;4.62;32.25
69980;BME280;57318;56.232;43.944;2023-04-09T03:37:30;100347.19;;;4.68;32.32
69980;BME280;57318;56.232;43.944;2023-04-09T03:39:55;100347.03;;;4.72;32.31
69980;BME280;57318;56.232;43.944;2023-04-09T03:42:22;100351.28;;;4.76;32.37
69980;BME280;57318;56.232;43.944;2023-04-09T03:44:48;100351.94;;;4.81;32.68
69980;BME280;57318;56.232;43.944;2023-04-09T03:47:14;100341.34;;;4.82;32.60
69980;BME280;57318;56.232;43.944;2023-04-09T03:49:39;100354.25;;;4.88;32.30
69980;BME280;57318;56.232;43.944;2023-04-09T03:52:05;100343.59;;;4.92;32.79
69980;BME280;57318;56.232;43.944;2023-04-09T03:54:31;100337.28;;;4.96;32.46
69980;BME280;57318;56.232;43.944;2023-04-09T03:56:57;100342.22;;;5.03;31.94
69980;BME280;57318;56.232;43.944;2023-04-09T03:59:23;100345.44;;;5.10;31.83
69980;BME280;57318;56.232;43.944;2023-04-09T04:01:48;100342.56;;;5.16;31.86
69980;BME280;57318;56.232;43.944;2023-04-09T04:04:14;100343.13;;;5.23;32.45
69980;BME280;57318;56.232;43.944;2023-04-09T04:06:40;100342.09;;;5.27;31.78
69980;BME280;57318;56.232;43.944;2023-04-09T04:09:06;100343.50;;;5.34;31.49
69980;BME280;57318;56.232;43.944;2023-04-09T04:11:31;100342.34;;;5.41;31.33
69980;BME280;57318;56.232;43.944;2023-04-09T04:13:57;100337.56;;;5.50;31.31
69980;BME280;57318;56.232;43.944;2023-04-09T04:16:23;100345.00;;;5.60;31.63
69980;BME280;57318;56.232;43.944;2023-04-09T04:18:48;100344.59;;;5.70;31.62
69980;BME280;57318;56.232;43.944;2023-04-09T04:21:15;100347.78;;;5.76;31.87
69980;BME280;57318;56.232;43.944;2023-04-09T04:23:41;100336.81;;;5.86;31.79
69980;BME280;57318;56.232;43.944;2023-04-09T04:26:10;100341.56;;;5.98;31.08
69980;BME280;57318;56.232;43.944;2023-04-09T04:28:39;100339.28;;;6.09;30.54
69980;BME280;57318;56.232;43.944;2023-04-09T04:31:09;100336.13;;;6.20;30.40
69980;BME280;57318;56.232;43.944;2023-04-09T04:33:38;100332.22;;;6.29;30.17
69980;BME280;57318;56.232;43.944;2023-04-09T04:36:05;100327.13;;;6.43;29.53
69980;BME280;57318;56.232;43.944;2023-04-09T04:38:31;100330.94;;;6.55;29.39
69980;BME280;57318;56.232;43.944;2023-04-09T04:40:57;100330.41;;;6.66;29.20
69980;BME280;57318;56.232;43.944;2023-04-09T04:43:22;100334.63;;;6.70;29.34
69980;BME280;57318;56.232;43.944;2023-04-09T04:45:48;100341.13;;;6.80;28.95
69980;BME280;57318;56.232;43.944;2023-04-09T04:48:14;100340.69;;;6.90;29.01
69980;BME280;57318;56.232;43.944;2023-04-09T04:50:40;100335.78;;;6.99;28.74
69980;BME280;57318;56.232;43.944;2023-04-09T04:53:05;100336.03;;;7.12;28.69
69980;BME280;57318;56.232;43.944;2023-04-09T04:55:34;100337.25;;;7.22;28.73
69980;BME280;57318;56.232;43.944;2023-04-09T04:58:01;100341.06;;;7.34;27.94
69980;BME280;57318;56.232;43.944;2023-04-09T05:00:27;100343.13;;;7.45;27.83
69980;BME280;57318;56.232;43.944;2023-04-09T05:02:53;100340.84;;;7.55;27.85
69980;BME280;57318;56.232;43.944;2023-04-09T05:05:19;100343.00;;;7.64;28.29
69980;BME280;57318;56.232;43.944;2023-04-09T05:07:44;100348.66;;;7.74;28.60
69980;BME280;57318;56.232;43.944;2023-04-09T05:10:10;100349.19;;;7.81;28.67
69980;BME280;57318;56.232;43.944;2023-04-09T05:12:36;100348.84;;;7.87;28.18
69980;BME280;57318;56.232;43.944;2023-04-09T05:15:01;100352.16;;;7.90;28.25
69980;BME280;57318;56.232;43.944;2023-04-09T05:17:28;100352.72;;;7.97;28.21
69980;BME280;57318;56.232;43.944;2023-04-09T05:19:54;100343.41;;;8.06;28.11
69980;BME280;57318;56.232;43.944;2023-04-09T05:22:22;100351.59;;;8.17;28.00
69980;BME280;57318;56.232;43.944;2023-04-09T05:24:48;100344.28;;;8.22;27.88
69980;BME280;57318;56.232;43.944;2023-04-09T05:27:13;100347.25;;;8.32;27.83
69980;BME280;57318;56.232;43.944;2023-04-09T05:29:39;100351.94;;;8.43;27.81
69980;BME280;57318;56.232;43.944;2023-04-09T05:32:05;100345.28;;;8.52;27.79
69980;BME280;57318;56.232;43.944;2023-04-09T05:34:34;100351.59;;;8.65;27.88
69980;BME280;57318;56.232;43.944;2023-04-09T05:36:59;100351.94;;;8.75;27.66
69980;BME280;57318;56.232;43.944;2023-04-09T05:39:25;100342.41;;;8.87;27.61
69980;BME280;57318;56.232;43.944;2023-04-09T05:41:51;100348.59;;;9.01;27.59
69980;BME280;57318;56.232;43.944;2023-04-09T05:44:17;100345.13;;;9.15;27.58
69980;BME280;57318;56.232;43.944;2023-04-09T05:46:43;100345.44;;;9.25;27.21
69980;BME280;57318;56.232;43.944;2023-04-09T05:49:08;100352.75;;;9.36;27.14
69980;BME280;57318;56.232;43.944;2023-04-09T05:51:34;100353.88;;;9.46;26.90
69980;BME280;57318;56.232;43.944;2023-04-09T05:54:00;100354.19;;;9.56;26.64
69980;BME280;57318;56.232;43.944;2023-04-09T05:56:26;100350.97;;;9.65;26.68
69980;BME280;57318;56.232;43.944;2023-04-09T05:58:52;100353.03;;;9.74;26.62
69980;BME280;57318;56.232;43.944;2023-04-09T06:01:18;100354.19;;;9.85;26.80
69980;BME280;57318;56.232;43.944;2023-04-09T06:03:44;100362.22;;;9.98;26.75
69980;BME280;57318;56.232;43.944;2023-04-09T06:06:10;100359.84;;;10.07;26.30
69980;BME280;57318;56.232;43.944;2023-04-09T06:08:35;100357.56;;;10.16;25.36
69980;BME280;57318;56.232;43.944;2023-04-09T06:11:01;100363.03;;;10.27;25.28
69980;BME280;57318;56.232;43.944;2023-04-09T06:13:28;100356.00;;;10.40;25.08
69980;BME280;57318;56.232;43.944;2023-04-09T06:15:53;100365.50;;;10.72;24.57
69980;BME280;57318;56.232;43.944;2023-04-09T06:18:19;100372.91;;;11.98;23.48
69980;BME280;57318;56.232;43.944;2023-04-09T06:20:45;100366.59;;;14.23;21.36
69980;BME280;57318;56.232;43.944;2023-04-09T06:23:10;100375.47;;;16.75;19.03
69980;BME280;57318;56.232;43.944;2023-04-09T06:25:36;100374.19;;;19.15;17.07
69980;BME280;57318;56.232;43.944;2023-04-09T06:28:04;100384.03;;;21.62;15.04
69980;BME280;57318;56.232;43.944;2023-04-09T06:30:29;100378.47;;;23.96;13.51
69980;BME280;57318;56.232;43.944;2023-04-09T06:32:56;100384.63;;;25.30;11.49
69980;BME280;57318;56.232;43.944;2023-04-09T06:35:22;100391.19;;;26.47;11.13
69980;BME280;57318;56.232;43.944;2023-04-09T06:37:48;100389.13;;;27.31;10.72
69980;BME280;57318;56.232;43.944;2023-04-09T06:40:13;100381.59;;;28.32;10.25
69980;BME280;57318;56.232;43.944;2023-04-09T06:42:39;100391.69;;;29.40;8.79
69980;BME280;57318;56.232;43.944;2023-04-09T06:45:08;100397.81;;;30.41;8.10
69980;BME280;57318;56.232;43.944;2023-04-09T06:47:35;100391.72;;;30.70;7.80
69980;BME280;57318;56.232;43.944;2023-04-09T06:50:02;100385.66;;;30.68;8.23
69980;BME280;57318;56.232;43.944;2023-04-09T06:52:28;100396.44;;;31.23;8.28
69980;BME280;57318;56.232;43.944;2023-04-09T06:54:54;100399.44;;;31.93;7.61
69980;BME280;57318;56.232;43.944;2023-04-09T06:57:22;100394.84;;;31.70;6.81
69980;BME280;57318;56.232;43.944;2023-04-09T06:59:48;100397.44;;;31.88;6.92
69980;BME280;57318;56.232;43.944;2023-04-09T07:02:13;100397.53;;;32.58;6.55
69980;BME280;57318;56.232;43.944;2023-04-09T07:04:39;100398.00;;;32.95;6.00
69980;BME280;57318;56.232;43.944;2023-04-09T07:07:04;100397.28;;;33.51;6.11
69980;BME280;57318;56.232;43.944;2023-04-09T07:09:30;100388.81;;;32.20;6.61
69980;BME280;57318;56.232;43.944;2023-04-09T07:11:56;100386.03;;;32.08;6.83
69980;BME280;57318;56.232;43.944;2023-04-09T07:14:21;100391.84;;;32.76;6.39
69980;BME280;57318;56.232;43.944;2023-04-09T07:16:49;100393.75;;;33.21;6.08
69980;BME280;57318;56.232;43.944;2023-04-09T07:19:15;100393.69;;;33.33;6.33
69980;BME280;57318;56.232;43.944;2023-04-09T07:21:40;100391.56;;;33.57;6.22
69980;BME280;57318;56.232;43.944;2023-04-09T07:24:06;100379.28;;;32.97;6.00
69980;BME280;57318;56.232;43.944;2023-04-09T07:26:32;100382.75;;;32.76;6.23
69980;BME280;57318;56.232;43.944;2023-04-09T07:28:57;100384.19;;;32.09;6.06
69980;BME280;57318;56.232;43.944;2023-04-09T07:31:23;100382.19;;;32.73;6.12
69980;BME280;57318;56.232;43.944;2023-04-09T07:33:49;100382.31;;;33.13;5.82
69980;BME280;57318;56.232;43.944;2023-04-09T07:36:15;100379.00;;;33.44;5.81
69980;BME280;57318;56.232;43.944;2023-04-09T07:38:40;100382.78;;;33.94;5.42
69980;BME280;57318;56.232;43.944;2023-04-09T07:41:09;100380.03;;;34.16;5.20
69980;BME280;57318;56.232;43.944;2023-04-09T07:43:35;100380.56;;;34.36;5.10
69980;BME280;57318;56.232;43.944;2023-04-09T07:46:01;100385.25;;;34.35;5.25
69980;BME280;57318;56.232;43.944;2023-04-09T07:48:27;100382.50;;;33.74;5.38
69980;BME280;57318;56.232;43.944;2023-04-09T07:50:52;100379.75;;;33.23;5.60
69980;BME280;57318;56.232;43.944;2023-04-09T07:53:18;100366.84;;;32.95;5.72
69980;BME280;57318;56.232;43.944;2023-04-09T07:55:43;100367.72;;;32.95;5.58
69980;BME280;57318;56.232;43.944;2023-04-09T07:58:09;100364.53;;;33.03;5.88
69980;BME280;57318;56.232;43.944;2023-04-09T08:00:35;100374.06;;;33.13;5.69
69980;BME280;57318;56.232;43.944;2023-04-09T08:03:01;100365.91;;;33.35;5.49
69980;BME280;57318;56.232;43.944;2023-04-09T08:05:28;100367.22;;;32.98;5.79
69980;BME280;57318;56.232;43.944;2023-04-09T08:07:55;100365.53;;;32.97;5.58
69980;BME280;57318;56.232;43.944;2023-04-09T08:10:20;100360.81;;;32.81;5.68
69980;BME280;57318;56.232;43.944;2023-04-09T08:12:47;100363.03;;;32.96;5.82
69980;BME280;57318;56.232;43.944;2023-04-09T08:15:13;100361.91;;;33.25;5.99
69980;BME280;57318;56.232;43.944;2023-04-09T08:17:39;100361.59;;;33.61;5.89
69980;BME280;57318;56.232;43.944;2023-04-09T08:20:08;100366.50;;;34.15;5.48
69980;BME280;57318;56.232;43.944;2023-04-09T08:22:34;100354.88;;;33.52;5.67
69980;BME280;57318;56.232;43.944;2023-04-09T08:25:00;100352.88;;;33.30;5.41
69980;BME280;57318;56.232;43.944;2023-04-09T08:27:26;100352.19;;;33.57;5.38
69980;BME280;57318;56.232;43.944;2023-04-09T08:29:52;100353.47;;;33.88;5.23
69980;BME280;57318;56.232;43.944;2023-04-09T08:32:17;100349.28;;;33.30;5.52
69980;BME280;57318;56.232;43.944;2023-04-09T08:34:43;100349.84;;;33.49;5.54
69980;BME280;57318;56.232;43.944;2023-04-09T08:37:08;100348.66;;;34.23;5.39
69980;BME280;57318;56.232;43.944;2023-04-09T08:39:34;100344.75;;;34.95;5.13
69980;BME280;57318;56.232;43.944;2023-04-09T08:42:01;100352.84;;;35.39;4.97
69980;BME280;57318;56.232;43.944;2023-04-09T08:44:28;100350.47;;;35.58;4.77
69980;BME280;57318;56.232;43.944;2023-04-09T08:46:54;100339.38;;;35.53;5.09
69980;BME280;57318;56.232;43.944;2023-04-09T08:49:20;100344.34;;;35.14;4.88
69980;BME280;57318;56.232;43.944;2023-04-09T08:51:49;100335.31;;;34.64;5.16
69980;BME280;57318;56.232;43.944;2023-04-09T08:54:15;100334.91;;;34.50;5.12
69980;BME280;57318;56.232;43.944;2023-04-09T08:56:43;100339.22;;;34.41;4.92
69980;BME280;57318;56.232;43.944;2023-04-09T08:59:08;100336.28;;;34.75;5.08
69980;BME280;57318;56.232;43.944;2023-04-09T09:01:34;100336.06;;;33.88;5.17
69980;BME280;57318;56.232;43.944;2023-04-09T09:04:07;100321.91;;;33.23;5.50
69980;BME280;57318;56.232;43.944;2023-04-09T09:06:38;100321.13;;;32.77;5.42
69980;BME280;57318;56.232;43.944;2023-04-09T09:09:13;100323.97;;;32.82;5.74
69980;BME280;57318;56.232;43.944;2023-04-09T09:11:43;100314.22;;;32.05;5.99
69980;BME280;57318;56.232;43.944;2023-04-09T09:14:11;100311.69;;;30.61;6.62
69980;BME280;57318;56.232;43.944;2023-04-09T09:16:39;100311.19;;;30.34;6.79
69980;BME280;57318;56.232;43.944;2023-04-09T09:19:08;100311.22;;;30.76;6.87
69980;BME280;57318;56.232;43.944;2023-04-09T09:21:34;100313.03;;;32.12;6.33
69980;BME280;57318;56.232;43.944;2023-04-09T09:24:01;100319.16;;;32.89;5.68
69980;BME280;57318;56.232;43.944;2023-04-09T09:26:28;100313.84;;;33.72;5.50
69980;BME280;57318;56.232;43.944;2023-04-09T09:28:55;100307.22;;;33.95;5.25
69980;BME280;57318;56.232;43.944;2023-04-09T09:31:23;100302.28;;;33.36;5.57
69980;BME280;57318;56.232;43.944;2023-04-09T09:33:49;100308.72;;;32.45;5.90
69980;BME280;57318;56.232;43.944;2023-04-09T09:36:29;100303.25;;;31.93;6.04
69980;BME280;57318;56.232;43.944;2023-04-09T09:38:57;100305.31;;;30.91;6.06
69980;BME280;57318;56.232;43.944;2023-04-09T09:41:26;100295.69;;;30.58;6.52
69980;BME280;57318;56.232;43.944;2023-04-09T09:43:52;100299.97;;;30.23;6.93
69980;BME280;57318;56.232;43.944;2023-04-09T09:46:18;100295.94;;;29.52;6.87
69980;BME280;57318;56.232;43.944;2023-04-09T09:48:45;100294.34;;;30.18;6.81
69980;BME280;57318;56.232;43.944;2023-04-09T09:51:11;100294.59;;;31.48;6.76
69980;BME280;57318;56.232;43.944;2023-04-09T09:53:39;100300.78;;;32.78;5.96
69980;BME280;57318;56.232;43.944;2023-04-09T09:56:09;100295.06;;;33.52;5.64
69980;BME280;57318;56.232;43.944;2023-04-09T09:58:46;100297.31;;;33.94;5.17
69980;BME280;57318;56.232;43.944;2023-04-09T10:01:16;100292.78;;;34.10;5.01
69980;BME280;57318;56.232;43.944;2023-04-09T10:03:45;100296.09;;;34.34;4.88
69980;BME280;57318;56.232;43.944;2023-04-09T10:06:13;100295.03;;;34.95;4.68
69980;BME280;57318;56.232;43.944;2023-04-09T10:08:41;100296.59;;;35.18;4.70
69980;BME280;57318;56.232;43.944;2023-04-09T10:11:07;100291.75;;;35.89;4.47
69980;BME280;57318;56.232;43.944;2023-04-09T10:13:42;100287.09;;;36.05;4.04
69980;BME280;57318;56.232;43.944;2023-04-09T10:16:10;100278.22;;;35.92;4.21
69980;BME280;57318;56.232;43.944;2023-04-09T10:18:37;100284.09;;;35.53;4.42
69980;BME280;57318;56.232;43.944;2023-04-09T10:21:13;100287.06;;;35.89;4.47
69980;BME280;57318;56.232;43.944;2023-04-09T10:23:43;100275.69;;;35.86;4.57
69980;BME280;57318;56.232;43.944;2023-04-09T10:26:09;100279.38;;;36.12;4.44
69980;BME280;57318;56.232;43.944;2023-04-09T10:28:38;100278.09;;;36.51;3.88
69980;BME280;57318;56.232;43.944;2023-04-09T10:31:05;100279.44;;;36.38;4.09
69980;BME280;57318;56.232;43.944;2023-04-09T10:33:32;100266.91;;;36.04;4.02
69980;BME280;57318;56.232;43.944;2023-04-09T10:35:59;100274.38;;;36.14;4.20
69980;BME280;57318;56.232;43.944;2023-04-09T10:38:35;100269.34;;;35.90;4.14
69980;BME280;57318;56.232;43.944;2023-04-09T10:41:27;100263.09;;;36.21;4.09
69980;BME280;57318;56.232;43.944;2023-04-09T10:43:54;100266.72;;;36.26;3.89
69980;BME280;57318;56.232;43.944;2023-04-09T10:46:34;100261.69;;;36.23;4.03
69980;BME280;57318;56.232;43.944;2023-04-09T10:49:10;100263.44;;;36.81;3.99
69980;BME280;57318;56.232;43.944;2023-04-09T10:51:39;100256.78;;;36.46;3.91
69980;BME280;57318;56.232;43.944;2023-04-09T10:59:37;100256.38;;;35.33;4.44
69980;BME280;57318;56.232;43.944;2023-04-09T11:02:07;100254.69;;;35.27;4.57
69980;BME280;57318;56.232;43.944;2023-04-09T11:04:40;100252.94;;;35.68;4.30
69980;BME280;57318;56.232;43.944;2023-04-09T11:07:14;100252.03;;;35.47;4.58
69980;BME280;57318;56.232;43.944;2023-04-09T11:09:42;100244.75;;;35.94;4.15
69980;BME280;57318;56.232;43.944;2023-04-09T11:12:10;100240.59;;;35.86;3.87
69980;BME280;57318;56.232;43.944;2023-04-09T11:14:36;100239.09;;;35.63;4.22
69980;BME280;57318;56.232;43.944;2023-04-09T11:17:04;100234.84;;;35.40;4.33
69980;BME280;57318;56.232;43.944;2023-04-09T11:19:32;100241.22;;;35.46;4.09
69980;BME280;57318;56.232;43.944;2023-04-09T11:21:58;100228.91;;;35.21;4.21
69980;BME280;57318;56.232;43.944;2023-04-09T11:24:24;100232.22;;;34.80;4.34
69980;BME280;57318;56.232;43.944;2023-04-09T11:26:50;100220.28;;;33.88;4.79
69980;BME280;57318;56.232;43.944;2023-04-09T11:29:16;100229.69;;;33.25;4.79
69980;BME280;57318;56.232;43.944;2023-04-09T11:31:43;100219.00;;;33.12;4.72
69980;BME280;57318;56.232;43.944;2023-04-09T11:34:10;100222.09;;;33.16;5.07
69980;BME280;57318;56.232;43.944;2023-04-09T11:36:39;100212.16;;;33.32;4.98
69980;BME280;57318;56.232;43.944;2023-04-09T11:39:05;100215.69;;;33.10;4.93
69980;BME280;57318;56.232;43.944;2023-04-09T11:41:32;100207.34;;;32.54;5.37
69980;BME280;57318;56.232;43.944;2023-04-09T11:44:01;100207.19;;;32.61;5.39
69980;BME280;57318;56.232;43.944;2023-04-09T11:46:27;100209.38;;;32.42;5.29
69980;BME280;57318;56.232;43.944;2023-04-09T11:48:54;100202.75;;;32.26;5.50
69980;BME280;57318;56.232;43.944;2023-04-09T11:51:21;100202.81;;;32.14;5.50
69980;BME280;57318;56.232;43.944;2023-04-09T11:53:48;100196.28;;;32.03;5.79
69980;BME280;57318;56.232;43.944;2023-04-09T11:56:15;100197.28;;;31.56;5.63
69980;BME280;57318;56.232;43.944;2023-04-09T11:58:44;100187.19;;;30.74;6.13
69980;BME280;57318;56.232;43.944;2023-04-09T12:01:11;100189.56;;;30.82;6.64
69980;BME280;57318;56.232;43.944;2023-04-09T12:03:37;100182.03;;;30.54;6.42
69980;BME280;57318;56.232;43.944;2023-04-09T12:06:04;100187.56;;;30.35;6.22
69980;BME280;57318;56.232;43.944;2023-04-09T12:08:34;100182.16;;;30.05;6.16
69980;BME280;57318;56.232;43.944;2023-04-09T12:11:11;100175.03;;;29.37;6.43
69980;BME280;57318;56.232;43.944;2023-04-09T12:13:37;100178.19;;;28.46;6.85
69980;BME280;57318;56.232;43.944;2023-04-09T12:16:07;100175.31;;;27.57;7.19
69980;BME280;57318;56.232;43.944;2023-04-09T12:18:36;100165.03;;;26.60;7.67
69980;BME280;57318;56.232;43.944;2023-04-09T12:21:03;100167.44;;;25.95;8.07
69980;BME280;57318;56.232;43.944;2023-04-09T12:23:28;100153.91;;;25.12;8.46
69980;BME280;57318;56.232;43.944;2023-04-09T12:25:56;100156.59;;;24.48;9.04
69980;BME280;57318;56.232;43.944;2023-04-09T12:28:25;100160.88;;;23.78;9.23
69980;BME280;57318;56.232;43.944;2023-04-09T12:30:52;100149.94;;;23.05;9.54
69980;BME280;57318;56.232;43.944;2023-04-09T12:33:18;100154.38;;;22.53;9.72
69980;BME280;57318;56.232;43.944;2023-04-09T12:35:43;100152.09;;;22.19;9.76
69980;BME280;57318;56.232;43.944;2023-04-09T12:38:09;100149.69;;;21.77;10.28
69980;BME280;57318;56.232;43.944;2023-04-09T12:40:35;100149.03;;;21.67;10.45
69980;BME280;57318;56.232;43.944;2023-04-09T12:43:01;100140.09;;;21.67;10.61
69980;BME280;57318;56.232;43.944;2023-04-09T12:45:28;100145.56;;;21.58;10.66
69980;BME280;57318;56.232;43.944;2023-04-09T12:47:54;100145.34;;;21.29;10.88
69980;BME280;57318;56.232;43.944;2023-04-09T12:50:19;100146.78;;;20.91;10.96
69980;BME280;57318;56.232;43.944;2023-04-09T12:52:45;100147.34;;;20.54;11.26
69980;BME280;57318;56.232;43.944;2023-04-09T12:55:12;100142.97;;;20.36;11.63
69980;BME280;57318;56.232;43.944;2023-04-09T12:57:41;100141.44;;;20.17;11.50
69980;BME280;57318;56.232;43.944;2023-04-09T13:00:07;100138.75;;;20.09;11.51
69980;BME280;57318;56.232;43.944;2023-04-09T13:02:33;100141.47;;;20.09;11.68
69980;BME280;57318;56.232;43.944;2023-04-09T13:04:59;100137.06;;;20.08;11.51